createdAt,value
2023-03-13T00:00:52.008Z,11.68
2023-03-13T00:03:19.187Z,9.10
2023-03-13T00:05:45.999Z,12.75
2023-03-13T00:08:13.152Z,9.73
2023-03-13T00:10:40.520Z,12.30
2023-03-13T00:13:08.029Z,9.98
2023-03-13T00:15:34.972Z,7.93
2023-03-13T00:18:02.057Z,8.98
2023-03-13T00:20:29.604Z,10.57
2023-03-13T00:22:56.643Z,10.70
2023-03-13T00:25:23.699Z,7.35
2023-03-13T00:27:50.790Z,8.77
2023-03-13T00:30:17.854Z,7.80
2023-03-13T00:32:46.319Z,7.95
2023-03-13T00:35:13.696Z,8.75
2023-03-13T00:37:40.765Z,8.23
2023-03-13T00:40:08.951Z,6.68
2023-03-13T00:42:36.374Z,9.05
2023-03-13T00:45:03.736Z,8.25
2023-03-13T00:47:30.863Z,8.70
2023-03-13T00:49:57.599Z,8.27
2023-03-13T00:52:25.047Z,10.23
2023-03-13T00:54:51.900Z,11.18
2023-03-13T00:57:18.957Z,11.15
2023-03-13T00:59:45.709Z,8.63
2023-03-13T01:02:12.889Z,11.32
2023-03-13T01:04:39.781Z,11.55
2023-03-13T01:07:06.388Z,9.00
2023-03-13T01:09:33.645Z,10.88
2023-03-13T01:12:00.453Z,10.43
2023-03-13T01:14:27.547Z,9.82
2023-03-13T01:16:54.335Z,9.82
2023-03-13T01:19:21.391Z,10.63
2023-03-13T01:21:48.425Z,8.60
2023-03-13T01:24:16.876Z,9.93
2023-03-13T01:26:43.719Z,9.68
2023-03-13T01:29:10.805Z,9.18
2023-03-13T01:31:37.695Z,11.05
2023-03-13T01:34:05.276Z,8.93
2023-03-13T01:36:32.093Z,8.63
2023-03-13T01:39:00.127Z,7.85
2023-03-13T01:41:27.382Z,7.38
2023-03-13T01:43:55.618Z,8.02
2023-03-13T01:46:27.810Z,8.75
2023-03-13T01:49:14.979Z,7.00
2023-03-13T01:51:48.126Z,9.60
2023-03-13T01:54:27.548Z,8.63
2023-03-13T01:56:55.605Z,8.55
2023-03-13T01:59:27.040Z,10.05
2023-03-13T02:01:55.591Z,7.53
2023-03-13T02:04:22.828Z,10.45
2023-03-13T02:06:50.796Z,7.22
2023-03-13T02:09:22.941Z,8.73
2023-03-13T02:12:10.141Z,9.88
2023-03-13T02:14:38.314Z,8.43
2023-03-13T02:17:05.723Z,7.68
2023-03-13T02:19:38.300Z,7.38
2023-03-13T02:22:26.428Z,10.18
2023-03-13T02:25:05.593Z,6.82
2023-03-13T02:27:32.333Z,6.75
2023-03-13T02:29:59.673Z,5.93
2023-03-13T02:32:27.377Z,5.38
2023-03-13T02:34:56.401Z,5.68
2023-03-13T02:37:23.813Z,7.00
2023-03-13T02:39:50.857Z,5.97
2023-03-13T02:42:18.649Z,5.53
2023-03-13T02:44:46.615Z,6.10
2023-03-13T02:47:18.443Z,5.65
2023-03-13T02:49:45.477Z,4.57
2023-03-13T02:52:24.959Z,5.90
2023-03-13T02:54:55.185Z,6.60
2023-03-13T02:57:22.022Z,6.03
2023-03-13T02:59:49.082Z,5.50
2023-03-13T03:02:15.910Z,6.18
2023-03-13T03:04:43.006Z,4.35
2023-03-13T03:07:09.750Z,5.07
2023-03-13T03:09:36.821Z,5.65
2023-03-13T03:12:03.693Z,5.13
2023-03-13T03:14:31.072Z,4.15
2023-03-13T03:16:57.857Z,5.80
2023-03-13T03:19:25.119Z,3.63
2023-03-13T03:21:51.870Z,4.57
2023-03-13T03:24:18.933Z,3.92
2023-03-13T03:26:45.893Z,5.32
2023-03-13T03:29:12.973Z,7.28
2023-03-13T03:31:39.787Z,7.22
2023-03-13T03:34:06.880Z,6.63
2023-03-13T03:36:33.665Z,4.32
2023-03-13T03:39:00.783Z,4.60
2023-03-13T03:41:27.546Z,4.60
2023-03-13T03:43:54.698Z,4.18
2023-03-13T03:46:21.546Z,5.72
2023-03-13T03:48:48.654Z,7.18
2023-03-13T03:51:15.436Z,5.25
2023-03-13T03:53:42.766Z,5.00
2023-03-13T03:56:09.589Z,6.30
2023-03-13T03:58:36.674Z,6.65
2023-03-13T04:01:03.819Z,4.65
2023-03-13T04:03:31.032Z,4.63
2023-03-13T04:05:57.900Z,4.90
2023-03-13T04:08:25.011Z,3.63
2023-03-13T04:10:51.965Z,5.10
2023-03-13T04:13:19.029Z,7.78
2023-03-13T04:15:45.858Z,6.47
2023-03-13T04:18:13.040Z,6.13
2023-03-13T04:20:39.859Z,7.38
2023-03-13T04:23:06.960Z,6.75
2023-03-13T04:25:33.756Z,6.15
2023-03-13T04:28:00.825Z,6.90
2023-03-13T04:30:27.738Z,7.70
2023-03-13T04:32:54.949Z,6.00
2023-03-13T04:35:21.772Z,6.43
2023-03-13T04:37:48.883Z,6.10
2023-03-13T04:40:15.723Z,5.85
2023-03-13T04:42:42.842Z,6.13
2023-03-13T04:45:12.886Z,7.85
2023-03-13T04:47:40.024Z,6.70
2023-03-13T04:50:07.090Z,5.28
2023-03-13T04:52:34.182Z,6.03
2023-03-13T04:55:01.017Z,6.63
2023-03-13T04:57:28.228Z,7.47
2023-03-13T04:59:55.080Z,10.27
2023-03-13T05:02:22.268Z,7.28
2023-03-13T05:04:51.139Z,8.90
2023-03-13T05:07:19.229Z,10.20
2023-03-13T05:09:45.984Z,7.50
2023-03-13T05:12:13.059Z,7.00
2023-03-13T05:14:39.813Z,8.18
2023-03-13T05:17:06.927Z,7.50
2023-03-13T05:19:33.739Z,5.38
2023-03-13T05:22:00.798Z,6.10
2023-03-13T05:24:27.599Z,6.38
2023-03-13T05:26:54.642Z,6.43
2023-03-13T05:29:21.428Z,6.20
2023-03-13T05:31:48.490Z,6.18
2023-03-13T05:34:15.287Z,4.90
2023-03-13T05:36:42.360Z,6.18
2023-03-13T05:39:09.178Z,6.60
2023-03-13T05:41:36.256Z,5.43
2023-03-13T05:44:03.030Z,6.57
2023-03-13T05:46:31.094Z,7.18
2023-03-13T05:48:57.892Z,6.28
2023-03-13T05:51:25.018Z,8.00
2023-03-13T05:53:51.725Z,9.13
2023-03-13T05:56:18.766Z,7.65
2023-03-13T05:58:45.520Z,7.57
2023-03-13T06:01:13.260Z,7.72
2023-03-13T06:03:40.230Z,7.30
2023-03-13T06:06:07.633Z,6.25
2023-03-13T06:08:34.409Z,6.10
2023-03-13T06:11:02.080Z,7.25
2023-03-13T06:13:29.113Z,8.98
2023-03-13T06:15:57.020Z,11.10
2023-03-13T06:18:23.854Z,7.22
2023-03-13T06:20:57.988Z,7.20
2023-03-13T06:23:24.932Z,8.77
2023-03-13T06:25:52.037Z,10.07
2023-03-13T06:28:18.804Z,14.65
2023-03-13T06:30:45.856Z,8.82
2023-03-13T06:33:12.856Z,10.73
2023-03-13T06:35:55.077Z,8.90
2023-03-13T06:38:24.465Z,12.07
2023-03-13T06:40:51.683Z,12.43
2023-03-13T06:43:18.795Z,9.98
2023-03-13T06:45:45.995Z,13.57
2023-03-13T06:48:12.782Z,10.38
2023-03-13T06:50:40.315Z,12.02
2023-03-13T06:53:07.201Z,10.68
2023-03-13T06:55:34.270Z,11.90
2023-03-13T06:58:01.043Z,10.93
2023-03-13T07:00:28.295Z,8.95
2023-03-13T07:02:55.468Z,11.90
2023-03-13T07:05:22.669Z,10.55
2023-03-13T07:07:49.465Z,9.32
2023-03-13T07:10:16.811Z,9.65
2023-03-13T07:12:44.545Z,12.82
2023-03-13T07:15:11.702Z,7.93
2023-03-13T07:17:38.538Z,10.73
2023-03-13T07:20:07.550Z,13.23
2023-03-13T07:22:34.311Z,9.07
2023-03-13T07:25:01.488Z,10.38
2023-03-13T07:27:28.401Z,10.07
2023-03-13T07:29:55.528Z,7.03
2023-03-13T07:32:22.632Z,9.05
2023-03-13T07:34:49.826Z,7.60
2023-03-13T07:37:16.808Z,7.97
2023-03-13T07:39:44.051Z,8.48
2023-03-13T07:42:11.926Z,11.10
2023-03-13T07:44:38.999Z,6.70
2023-03-13T07:47:06.846Z,7.35
2023-03-13T07:49:36.018Z,7.80
2023-03-13T07:52:02.789Z,9.88
2023-03-13T07:54:29.853Z,8.35
2023-03-13T07:56:56.607Z,7.50
2023-03-13T07:59:23.719Z,8.18
2023-03-13T08:01:50.615Z,7.80
2023-03-13T08:04:17.730Z,6.22
2023-03-13T08:06:44.483Z,8.15
2023-03-13T08:09:11.624Z,6.93
2023-03-13T08:11:40.343Z,8.70
2023-03-13T08:14:07.482Z,7.70
2023-03-13T08:16:34.942Z,7.60
2023-03-13T08:19:05.124Z,10.00
2023-03-13T08:21:33.850Z,11.38
2023-03-13T08:24:04.999Z,9.40
2023-03-13T08:26:31.900Z,12.20
2023-03-13T08:29:00.472Z,13.85
2023-03-13T08:31:32.010Z,10.00
2023-03-13T08:33:59.505Z,11.30
2023-03-13T08:36:34.105Z,11.82
2023-03-13T08:39:03.739Z,10.45
2023-03-13T08:41:32.342Z,10.30
2023-03-13T08:43:59.472Z,10.27
2023-03-13T08:46:26.439Z,9.73
2023-03-13T08:48:54.444Z,8.85
2023-03-13T08:51:23.045Z,9.73
2023-03-13T08:53:50.397Z,17.70
2023-03-13T08:56:19.386Z,14.75
2023-03-13T08:58:53.644Z,11.80
2023-03-13T09:01:21.010Z,12.05
2023-03-13T09:03:48.142Z,12.20
2023-03-13T09:06:14.982Z,10.40
2023-03-13T09:08:42.107Z,11.32
2023-03-13T09:11:14.082Z,9.52
2023-03-13T09:13:44.626Z,10.27
2023-03-13T09:16:13.834Z,13.05
2023-03-13T09:18:41.274Z,7.32
2023-03-13T09:21:09.931Z,11.13
2023-03-13T09:23:37.036Z,10.00
2023-03-13T09:26:04.141Z,6.78
2023-03-13T09:28:31.294Z,9.05
2023-03-13T09:31:06.896Z,7.13
2023-03-13T09:33:34.086Z,7.53
2023-03-13T09:36:00.891Z,12.10
2023-03-13T09:38:27.999Z,8.70
2023-03-13T09:41:05.699Z,9.60
2023-03-13T09:43:40.971Z,7.82
2023-03-13T09:46:12.339Z,5.93
2023-03-13T09:48:41.962Z,8.27
2023-03-13T09:51:13.815Z,8.27
2023-03-13T09:53:43.316Z,6.72
2023-03-13T09:56:31.261Z,5.88
2023-03-13T09:59:00.638Z,7.28
2023-03-13T10:01:29.840Z,6.57
2023-03-13T10:04:18.599Z,6.95
2023-03-13T10:06:45.401Z,5.80
2023-03-13T10:09:26.570Z,5.20
2023-03-13T10:11:56.549Z,8.82
2023-03-13T10:14:31.949Z,7.40
2023-03-13T10:17:22.424Z,7.68
2023-03-13T10:19:55.795Z,6.32
2023-03-13T10:22:26.126Z,8.02
2023-03-13T10:24:58.826Z,8.85
2023-03-13T10:27:25.686Z,8.15
2023-03-13T10:29:52.835Z,11.90
2023-03-13T10:32:20.817Z,6.65
2023-03-13T10:34:57.238Z,8.57
2023-03-13T10:37:40.405Z,7.55
2023-03-13T10:40:20.350Z,7.75
2023-03-13T10:42:47.130Z,6.53
2023-03-13T10:45:16.497Z,7.97
2023-03-13T10:47:43.341Z,6.22
2023-03-13T10:50:24.553Z,7.05
2023-03-13T10:52:51.377Z,5.65
2023-03-13T10:55:20.298Z,5.60
2023-03-13T10:58:00.910Z,6.18
2023-03-13T11:00:34.963Z,8.25
2023-03-13T11:03:18.585Z,6.88
2023-03-13T11:05:58.056Z,11.15
2023-03-13T11:08:26.392Z,6.50
2023-03-13T11:11:00.466Z,7.60
2023-03-13T11:13:37.262Z,9.05
2023-03-13T11:16:21.308Z,7.60
2023-03-13T11:18:54.286Z,6.95
2023-03-13T11:21:25.881Z,7.22
2023-03-13T11:24:04.642Z,9.60
2023-03-13T11:26:33.978Z,8.00
2023-03-13T11:29:04.723Z,8.38
2023-03-13T11:31:32.881Z,12.82
2023-03-13T11:34:12.852Z,9.15
2023-03-13T11:36:52.636Z,8.43
2023-03-13T11:39:37.777Z,9.93
2023-03-13T11:42:10.829Z,11.80
2023-03-13T11:44:46.900Z,13.13
2023-03-13T11:47:51.730Z,11.38
2023-03-13T11:50:24.510Z,11.10
2023-03-13T11:52:55.673Z,12.20
2023-03-13T11:55:46.329Z,11.43
2023-03-13T11:58:22.525Z,9.65
2023-03-13T12:01:03.122Z,10.63
2023-03-13T12:03:48.649Z,9.52
2023-03-13T12:06:28.247Z,9.48
2023-03-13T12:09:12.795Z,7.97
2023-03-13T12:11:43.838Z,11.40
2023-03-13T12:14:16.315Z,10.85
2023-03-13T12:16:49.225Z,9.40
2023-03-13T12:19:20.431Z,8.20
2023-03-13T12:21:49.852Z,7.32
2023-03-13T12:24:33.133Z,6.10
2023-03-13T12:27:02.693Z,9.48
2023-03-13T12:29:54.198Z,8.00
2023-03-13T12:32:38.863Z,7.80
2023-03-13T12:35:09.166Z,7.57
2023-03-13T12:37:50.558Z,8.70
2023-03-13T12:40:25.990Z,8.45
2023-03-13T12:43:05.363Z,7.40
2023-03-13T12:45:32.754Z,10.13
2023-03-13T12:48:22.040Z,6.95
2023-03-13T12:51:10.946Z,11.13
2023-03-13T12:53:37.802Z,8.20
2023-03-13T12:56:16.178Z,8.43
2023-03-13T12:58:50.114Z,9.43
2023-03-13T13:01:22.267Z,10.18
2023-03-13T13:03:52.788Z,8.30
2023-03-13T13:06:20.096Z,9.55
2023-03-13T13:08:53.095Z,9.90
2023-03-13T13:11:38.886Z,11.02
2023-03-13T13:14:11.679Z,8.32
2023-03-13T13:16:42.130Z,8.88
2023-03-13T13:19:40.698Z,9.15
2023-03-13T13:22:38.977Z,13.00
2023-03-13T13:25:18.223Z,10.70
2023-03-13T13:27:46.184Z,9.10
2023-03-13T13:30:18.909Z,9.38
2023-03-13T13:32:50.284Z,8.45
2023-03-13T13:35:31.118Z,9.25
2023-03-13T13:38:20.122Z,9.85
2023-03-13T13:41:11.783Z,9.02
2023-03-13T13:43:42.992Z,9.75
2023-03-13T13:46:23.278Z,9.00
2023-03-13T13:49:05.829Z,7.43
2023-03-13T13:51:42.400Z,9.90
2023-03-13T13:54:12.537Z,9.93
2023-03-13T13:56:42.443Z,11.85
2023-03-13T13:59:22.739Z,8.15
2023-03-13T14:01:50.766Z,10.50
2023-03-13T14:04:28.578Z,10.95
2023-03-13T14:06:55.940Z,10.65
2023-03-13T14:09:47.407Z,6.78
2023-03-13T14:12:25.121Z,10.60
2023-03-13T14:15:20.586Z,7.95
2023-03-13T14:17:51.589Z,6.47
2023-03-13T14:20:24.596Z,7.97
2023-03-13T14:22:51.554Z,8.05
2023-03-13T14:25:18.691Z,9.77
2023-03-13T14:27:46.180Z,12.07
2023-03-13T14:30:14.960Z,6.97
2023-03-13T14:32:41.778Z,8.55
2023-03-13T14:35:10.650Z,8.90
2023-03-13T14:37:47.864Z,9.40
2023-03-13T14:40:17.951Z,9.82
2023-03-13T14:42:50.145Z,9.50
2023-03-13T14:45:24.321Z,7.38
2023-03-13T14:47:51.893Z,9.50
2023-03-13T14:50:18.982Z,9.32
2023-03-13T14:52:49.078Z,7.05
2023-03-13T14:55:22.564Z,8.45
2023-03-13T14:57:57.083Z,10.02
2023-03-13T15:00:40.308Z,7.28
2023-03-13T15:03:21.411Z,9.88
2023-03-13T15:06:10.256Z,7.57
2023-03-13T15:08:44.812Z,8.60
2023-03-13T15:11:20.298Z,9.02
2023-03-13T15:13:47.177Z,7.38
2023-03-13T15:16:16.385Z,8.85
2023-03-13T15:18:43.211Z,11.88
2023-03-13T15:21:12.999Z,8.80
2023-03-13T15:23:47.297Z,13.82
2023-03-13T15:26:14.406Z,9.43
2023-03-13T15:28:41.227Z,8.88
2023-03-13T15:31:10.545Z,11.45
2023-03-13T15:33:37.308Z,13.60
2023-03-13T15:36:04.851Z,10.93
2023-03-13T15:38:31.770Z,10.18
2023-03-13T15:40:58.898Z,9.90
2023-03-13T15:43:26.268Z,11.48
2023-03-13T15:45:53.436Z,8.98
2023-03-13T15:48:28.074Z,11.18
2023-03-13T15:50:58.473Z,12.18
2023-03-13T15:53:26.082Z,13.55
2023-03-13T15:55:54.144Z,14.35
2023-03-13T15:58:21.063Z,11.82
2023-03-13T16:00:51.049Z,12.93
2023-03-13T16:03:24.840Z,13.57
2023-03-13T16:05:52.572Z,10.48
2023-03-13T16:08:34.731Z,14.52
2023-03-13T16:11:02.580Z,10.65
2023-03-13T16:13:29.543Z,12.65
2023-03-13T16:15:56.796Z,8.48
2023-03-13T16:18:24.134Z,9.32
2023-03-13T16:20:51.877Z,10.57
2023-03-13T16:23:18.715Z,10.10
2023-03-13T16:25:46.096Z,9.85
2023-03-13T16:28:13.308Z,9.75
2023-03-13T16:30:41.542Z,9.82
2023-03-13T16:33:08.411Z,10.80
2023-03-13T16:35:35.662Z,11.07
2023-03-13T16:38:02.762Z,14.00
2023-03-13T16:40:31.913Z,12.90
2023-03-13T16:42:58.765Z,11.52
2023-03-13T16:45:26.018Z,11.57
2023-03-13T16:47:53.503Z,12.15
2023-03-13T16:50:25.097Z,10.32
2023-03-13T16:52:52.111Z,13.85
2023-03-13T16:55:19.424Z,11.95
2023-03-13T16:57:46.329Z,10.00
2023-03-13T17:00:21.481Z,12.70
2023-03-13T17:02:48.738Z,11.07
2023-03-13T17:05:16.217Z,12.80
2023-03-13T17:07:44.624Z,11.50
2023-03-13T17:10:25.083Z,11.13
2023-03-13T17:12:51.977Z,11.88
2023-03-13T17:15:20.184Z,12.27
2023-03-13T17:17:51.895Z,15.85
2023-03-13T17:20:21.164Z,19.58
2023-03-13T17:22:47.945Z,13.45
2023-03-13T17:25:15.201Z,13.23
2023-03-13T17:27:42.901Z,15.55
2023-03-13T17:30:22.832Z,14.07
2023-03-13T17:32:50.328Z,16.98
2023-03-13T17:35:17.732Z,22.90
2023-03-13T17:37:45.032Z,17.20
2023-03-13T17:40:23.255Z,15.98
2023-03-13T17:42:50.267Z,15.02
2023-03-13T17:45:17.782Z,16.63
2023-03-13T17:47:44.694Z,14.25
2023-03-13T17:50:16.308Z,12.35
2023-03-13T17:52:43.189Z,14.73
2023-03-13T17:55:10.566Z,14.30
2023-03-13T17:57:37.585Z,14.60
2023-03-13T18:00:09.418Z,13.80
2023-03-13T18:02:36.755Z,10.43
2023-03-13T18:05:04.382Z,13.77
2023-03-13T18:07:31.194Z,15.15
2023-03-13T18:09:58.265Z,19.42
2023-03-13T18:12:25.114Z,21.40
2023-03-13T18:14:52.190Z,21.52
2023-03-13T18:17:20.736Z,21.73
2023-03-13T18:19:48.191Z,25.73
2023-03-13T18:22:19.616Z,20.90
2023-03-13T18:24:46.796Z,21.48
2023-03-13T18:27:15.959Z,21.73
2023-03-13T18:29:43.593Z,21.90
2023-03-13T18:32:11.143Z,20.50
2023-03-13T18:34:38.372Z,21.63
2023-03-13T18:37:11.418Z,20.38
2023-03-13T18:39:38.569Z,20.00
2023-03-13T18:42:07.082Z,20.23
2023-03-13T18:44:34.179Z,19.00
2023-03-13T18:47:00.967Z,22.25
2023-03-13T18:49:28.037Z,21.05
2023-03-13T18:51:54.828Z,19.90
2023-03-13T18:54:21.902Z,16.98
2023-03-13T18:56:48.701Z,21.17
2023-03-13T18:59:18.382Z,18.85
2023-03-13T19:01:47.141Z,19.35
2023-03-13T19:04:15.590Z,22.73
2023-03-13T19:06:42.543Z,19.10
2023-03-13T19:09:42.668Z,23.02
2023-03-13T19:12:11.628Z,20.92
2023-03-13T19:14:38.916Z,25.35
2023-03-13T19:17:07.192Z,22.73
2023-03-13T19:19:34.471Z,19.27
2023-03-13T19:22:02.117Z,20.85
2023-03-13T19:24:29.312Z,23.08
2023-03-13T19:26:59.174Z,24.45
2023-03-13T19:29:27.662Z,24.52
2023-03-13T19:31:59.213Z,24.10
2023-03-13T19:34:26.321Z,24.45
2023-03-13T19:36:53.476Z,22.48
2023-03-13T19:39:23.659Z,25.55
2023-03-13T19:41:50.763Z,28.67
2023-03-13T19:44:18.455Z,29.67
2023-03-13T19:46:45.648Z,25.58
2023-03-13T19:49:14.410Z,23.02
2023-03-13T19:51:41.282Z,23.50
2023-03-13T19:54:10.794Z,27.70
2023-03-13T19:56:39.252Z,23.65
2023-03-13T19:59:20.303Z,29.42
2023-03-13T20:01:47.237Z,31.63
2023-03-13T20:04:14.432Z,30.02
2023-03-13T20:06:41.514Z,32.72
2023-03-13T20:09:10.444Z,28.77
2023-03-13T20:11:37.370Z,28.95
2023-03-13T20:14:04.789Z,27.50
2023-03-13T20:16:33.716Z,27.60
2023-03-13T20:19:01.516Z,27.70
2023-03-13T20:21:33.533Z,27.88
2023-03-13T20:24:00.643Z,34.20
2023-03-13T20:26:28.086Z,31.48
2023-03-13T20:28:55.447Z,25.88
2023-03-13T20:31:24.162Z,28.35
2023-03-13T20:33:51.526Z,27.80
2023-03-13T20:36:19.632Z,27.95
2023-03-13T20:38:47.007Z,28.13
2023-03-13T20:41:14.213Z,24.23
2023-03-13T20:43:41.334Z,31.65
2023-03-13T20:46:08.329Z,26.30
2023-03-13T20:48:37.108Z,27.13
2023-03-13T20:51:04.099Z,26.80
2023-03-13T20:53:31.238Z,29.25
2023-03-13T20:55:58.362Z,27.50
2023-03-13T20:58:25.523Z,25.10
2023-03-13T21:00:52.470Z,29.63
2023-03-13T21:03:19.619Z,25.73
2023-03-13T21:05:46.380Z,25.90
2023-03-13T21:08:13.726Z,27.13
2023-03-13T21:10:40.968Z,28.67
2023-03-13T21:13:09.139Z,24.88
2023-03-13T21:15:36.063Z,31.85
2023-03-13T21:18:03.354Z,28.27
2023-03-13T21:20:30.166Z,30.35
2023-03-13T21:22:57.303Z,31.75
2023-03-13T21:25:24.174Z,29.88
2023-03-13T21:27:51.320Z,28.20
2023-03-13T21:30:19.943Z,29.08
2023-03-13T21:32:47.610Z,32.95
2023-03-13T21:35:14.641Z,31.73
2023-03-13T21:37:41.869Z,34.60
2023-03-13T21:40:09.690Z,32.72
2023-03-13T21:42:38.680Z,34.28
2023-03-13T21:45:06.086Z,36.65
2023-03-13T21:47:36.981Z,37.95
2023-03-13T21:50:05.636Z,38.42
2023-03-13T21:52:38.149Z,38.78
2023-03-13T21:55:08.390Z,40.08
2023-03-13T21:57:36.817Z,39.50
2023-03-13T22:00:06.411Z,42.50
2023-03-13T22:02:34.693Z,40.95
2023-03-13T22:05:02.546Z,42.90
2023-03-13T22:07:30.936Z,42.92
2023-03-13T22:09:58.134Z,43.28
2023-03-13T22:12:25.711Z,44.22
2023-03-13T22:14:52.833Z,45.30
2023-03-13T22:17:20.439Z,44.47
2023-03-13T22:19:47.261Z,50.08
2023-03-13T22:22:14.902Z,50.55
2023-03-13T22:24:41.704Z,48.72
2023-03-13T22:27:11.584Z,47.45
2023-03-13T22:29:38.418Z,44.30
2023-03-13T22:32:05.625Z,44.30
2023-03-13T22:34:32.446Z,43.47
2023-03-13T22:36:59.644Z,39.83
2023-03-13T22:39:26.438Z,40.45
2023-03-13T22:41:53.535Z,45.38
2023-03-13T22:44:21.633Z,38.33
2023-03-13T22:46:48.755Z,42.63
2023-03-13T22:49:15.576Z,38.55
2023-03-13T22:51:42.629Z,37.22
2023-03-13T22:54:09.423Z,38.38
2023-03-13T22:56:36.878Z,37.45
2023-03-13T22:59:03.749Z,39.30
2023-03-13T23:01:30.924Z,41.45
2023-03-13T23:03:57.747Z,38.88
2023-03-13T23:06:25.577Z,38.95
2023-03-13T23:08:52.617Z,37.70
2023-03-13T23:11:20.096Z,39.50
2023-03-13T23:13:47.045Z,33.88
2023-03-13T23:16:14.818Z,36.65
2023-03-13T23:18:41.854Z,35.72
2023-03-13T23:21:10.851Z,37.42
2023-03-13T23:23:37.887Z,33.40
2023-03-13T23:26:06.734Z,33.30
2023-03-13T23:28:34.533Z,32.65
2023-03-13T23:31:19.057Z,35.25
2023-03-13T23:33:46.177Z,32.35
2023-03-13T23:36:15.220Z,32.75
2023-03-13T23:38:42.212Z,31.75
2023-03-13T23:41:10.930Z,33.00
2023-03-13T23:43:37.825Z,37.53
2023-03-13T23:46:05.329Z,33.38
2023-03-13T23:48:32.180Z,34.55
2023-03-13T23:50:59.275Z,35.08
2023-03-13T23:53:26.065Z,36.53
2023-03-13T23:55:58.324Z,34.40
2023-03-13T23:58:25.294Z,37.38
